createdAt,value
2018-06-19T00:01:23.948Z,5.70
2018-06-19T00:03:52.404Z,5.73
2018-06-19T00:06:20.920Z,4.83
2018-06-19T00:08:49.499Z,4.73
2018-06-19T00:11:17.965Z,4.57
2018-06-19T00:13:46.636Z,4.50
2018-06-19T00:16:15.233Z,4.77
2018-06-19T00:18:46.337Z,4.30
2018-06-19T00:21:20.747Z,4.57
2018-06-19T00:23:49.217Z,4.27
2018-06-19T00:26:17.705Z,4.23
2018-06-19T00:28:47.604Z,3.60
2018-06-19T00:31:16.055Z,4.73
2018-06-19T00:33:44.499Z,4.40
2018-06-19T00:36:12.956Z,4.40
2018-06-19T00:38:41.444Z,4.03
2018-06-19T00:41:09.885Z,4.20
2018-06-19T00:43:38.354Z,4.20
2018-06-19T00:46:08.031Z,4.83
2018-06-19T00:48:36.682Z,5.30
2018-06-19T00:51:05.214Z,4.90
2018-06-19T00:53:33.660Z,4.57
2018-06-19T00:56:13.335Z,5.00
2018-06-19T00:58:42.239Z,4.90
2018-06-19T01:01:11.041Z,4.67
2018-06-19T01:03:39.478Z,4.33
2018-06-19T01:06:08.260Z,5.40
2018-06-19T01:08:36.735Z,5.63
2018-06-19T01:11:05.164Z,4.40
2018-06-19T01:13:33.848Z,4.27
2018-06-19T01:16:02.259Z,4.27
2018-06-19T01:18:30.935Z,4.83
2018-06-19T01:20:59.424Z,4.00
2018-06-19T01:23:27.854Z,3.60
2018-06-19T01:25:56.375Z,4.60
2018-06-19T01:28:24.804Z,4.20
2018-06-19T01:30:53.418Z,4.67
2018-06-19T01:33:21.840Z,4.07
2018-06-19T01:35:50.297Z,3.77
2018-06-19T01:38:18.779Z,3.93
2018-06-19T01:40:47.210Z,3.90
2018-06-19T01:43:15.787Z,3.80
2018-06-19T01:45:44.235Z,3.40
2018-06-19T01:48:12.668Z,3.47
2018-06-19T01:50:41.312Z,3.10
2018-06-19T01:53:09.958Z,3.70
2018-06-19T01:55:38.412Z,4.90
2018-06-19T01:58:06.842Z,5.10
2018-06-19T02:00:35.567Z,5.10
2018-06-19T02:03:04.020Z,6.10
2018-06-19T02:05:32.444Z,5.60
2018-06-19T02:08:00.888Z,5.93
2018-06-19T02:10:29.480Z,5.60
2018-06-19T02:12:58.017Z,5.70
2018-06-19T02:15:26.612Z,6.30
2018-06-19T02:17:55.095Z,6.50
2018-06-19T02:20:23.540Z,5.30
2018-06-19T02:22:51.994Z,4.00
2018-06-19T02:25:20.504Z,4.30
2018-06-19T02:27:49.192Z,5.17
2018-06-19T02:30:17.650Z,3.90
2018-06-19T02:32:46.115Z,4.10
2018-06-19T02:35:14.386Z,4.00
2018-06-19T02:37:42.915Z,4.33
2018-06-19T02:40:11.344Z,4.97
2018-06-19T02:42:39.874Z,5.03
2018-06-19T02:45:08.293Z,4.73
2018-06-19T02:47:36.813Z,5.87
2018-06-19T02:50:05.284Z,5.70
2018-06-19T02:52:33.878Z,5.70
2018-06-19T02:55:02.314Z,6.13
2018-06-19T02:57:30.876Z,5.30
2018-06-19T02:59:59.508Z,5.60
2018-06-19T03:02:28.062Z,5.03
2018-06-19T03:04:56.612Z,4.73
2018-06-19T03:07:25.140Z,6.37
2018-06-19T03:09:53.590Z,5.60
2018-06-19T03:12:22.012Z,5.80
2018-06-19T03:14:50.487Z,5.77
2018-06-19T03:17:18.941Z,5.57
2018-06-19T03:19:47.414Z,6.33
2018-06-19T03:22:15.976Z,4.90
2018-06-19T03:24:44.516Z,5.53
2018-06-19T03:27:13.139Z,5.20
2018-06-19T03:29:41.588Z,6.47
2018-06-19T03:32:10.193Z,5.33
2018-06-19T03:34:38.646Z,5.50
2018-06-19T03:37:07.142Z,5.80
2018-06-19T03:39:35.616Z,5.80
2018-06-19T03:42:04.111Z,6.00
2018-06-19T03:44:32.625Z,6.20
2018-06-19T03:47:01.213Z,5.87
2018-06-19T03:49:29.756Z,6.07
2018-06-19T03:51:58.161Z,5.87
2018-06-19T03:54:26.611Z,5.60
2018-06-19T03:56:55.453Z,6.10
2018-06-19T03:59:23.874Z,6.53
2018-06-19T04:01:52.363Z,5.60
2018-06-19T04:04:21.019Z,6.13
2018-06-19T04:06:49.489Z,5.83
2018-06-19T04:09:17.913Z,6.20
2018-06-19T04:11:46.361Z,6.37
2018-06-19T04:14:14.905Z,5.47
2018-06-19T04:16:43.368Z,5.73
2018-06-19T04:19:11.800Z,5.40
2018-06-19T04:21:40.309Z,5.40
2018-06-19T04:24:08.809Z,5.60
2018-06-19T04:26:37.345Z,4.43
2018-06-19T04:29:06.017Z,3.23
2018-06-19T04:31:34.534Z,3.80
2018-06-19T04:34:03.108Z,3.13
2018-06-19T04:36:31.579Z,3.50
2018-06-19T04:39:00.026Z,2.33
2018-06-19T04:41:28.484Z,3.20
2018-06-19T04:43:57.104Z,2.93
2018-06-19T04:46:25.541Z,3.40
2018-06-19T04:48:54.001Z,3.90
2018-06-19T04:51:22.460Z,3.20
2018-06-19T04:53:50.931Z,3.60
2018-06-19T04:56:19.400Z,3.70
2018-06-19T04:58:47.849Z,3.70
2018-06-19T05:01:16.318Z,4.00
2018-06-19T05:03:44.981Z,3.43
2018-06-19T05:06:13.405Z,3.80
2018-06-19T05:08:41.865Z,3.40
2018-06-19T05:11:10.377Z,3.40
2018-06-19T05:13:38.811Z,3.63
2018-06-19T05:16:07.383Z,3.37
2018-06-19T05:18:35.913Z,3.60
2018-06-19T05:21:04.628Z,3.70
2018-06-19T05:23:33.084Z,3.27
2018-06-19T05:26:01.886Z,2.93
2018-06-19T05:28:30.297Z,3.23
2018-06-19T05:30:59.001Z,3.30
2018-06-19T05:33:27.288Z,3.80
2018-06-19T05:35:56.252Z,3.63
2018-06-19T05:38:24.889Z,3.33
2018-06-19T05:40:53.410Z,2.90
2018-06-19T05:43:21.957Z,2.97
2018-06-19T05:45:50.680Z,3.40
2018-06-19T05:48:19.382Z,3.27
2018-06-19T05:50:47.869Z,3.50
2018-06-19T05:53:16.322Z,3.30
2018-06-19T05:55:44.775Z,6.60
2018-06-19T05:58:13.470Z,3.47
2018-06-19T06:00:41.941Z,3.33
2018-06-19T06:03:10.665Z,3.37
2018-06-19T06:05:39.113Z,3.20
2018-06-19T06:08:07.620Z,2.90
2018-06-19T06:10:36.230Z,3.47
2018-06-19T06:13:04.702Z,3.00
2018-06-19T06:15:33.155Z,3.30
2018-06-19T06:18:01.687Z,2.90
2018-06-19T06:20:30.173Z,3.37
2018-06-19T06:22:58.676Z,3.00
2018-06-19T06:25:27.104Z,3.13
2018-06-19T06:27:55.635Z,3.03
2018-06-19T06:30:24.225Z,3.03
2018-06-19T06:32:52.786Z,3.00
2018-06-19T06:35:21.364Z,3.63
2018-06-19T06:37:49.812Z,3.43
2018-06-19T06:40:18.253Z,2.90
2018-06-19T06:42:46.768Z,2.43
2018-06-19T06:45:15.276Z,2.63
2018-06-19T06:47:43.716Z,3.00
2018-06-19T06:50:12.273Z,2.73
2018-06-19T06:52:40.661Z,2.90
2018-06-19T06:55:09.152Z,3.27
2018-06-19T06:57:37.622Z,2.63
2018-06-19T07:00:06.496Z,2.90
2018-06-19T07:02:35.025Z,2.40
2018-06-19T07:05:03.480Z,2.33
2018-06-19T07:07:31.908Z,2.40
2018-06-19T07:10:00.484Z,2.67
2018-06-19T07:12:29.056Z,2.90
2018-06-19T07:14:57.568Z,2.30
2018-06-19T07:17:26.161Z,2.77
2018-06-19T07:19:54.617Z,2.70
2018-06-19T07:22:23.074Z,2.70
2018-06-19T07:24:51.490Z,2.50
2018-06-19T07:27:20.053Z,2.50
2018-06-19T07:29:48.724Z,2.33
2018-06-19T07:32:17.477Z,2.70
2018-06-19T07:34:46.140Z,2.37
2018-06-19T07:37:14.624Z,2.37
2018-06-19T07:39:43.055Z,2.60
2018-06-19T07:42:11.492Z,2.67
2018-06-19T07:44:40.085Z,2.40
2018-06-19T07:47:08.609Z,2.47
2018-06-19T07:49:37.045Z,2.30
2018-06-19T07:52:05.693Z,2.17
2018-06-19T07:54:34.119Z,2.67
2018-06-19T07:57:02.577Z,2.50
2018-06-19T07:59:31.109Z,2.80
2018-06-19T08:01:59.728Z,2.97
2018-06-19T08:04:28.224Z,2.10
2018-06-19T08:06:56.791Z,2.60
2018-06-19T08:09:25.388Z,2.10
2018-06-19T08:11:53.824Z,2.67
2018-06-19T08:14:22.286Z,2.43
2018-06-19T08:16:50.762Z,2.40
2018-06-19T08:19:19.207Z,2.37
2018-06-19T08:21:47.624Z,2.20
2018-06-19T08:24:16.072Z,2.60
2018-06-19T08:26:44.722Z,2.40
2018-06-19T08:29:13.167Z,2.30
2018-06-19T08:31:41.744Z,2.73
2018-06-19T08:34:10.228Z,2.20
2018-06-19T08:36:38.719Z,2.30
2018-06-19T08:39:09.489Z,2.13
2018-06-19T08:41:38.040Z,3.00
2018-06-19T08:44:06.620Z,2.10
2018-06-19T08:46:35.160Z,1.83
2018-06-19T08:49:03.768Z,1.87
2018-06-19T08:51:32.329Z,2.20
2018-06-19T08:54:00.960Z,2.50
2018-06-19T08:56:29.585Z,1.80
2018-06-19T08:58:58.502Z,2.27
2018-06-19T09:01:26.976Z,2.33
2018-06-19T09:03:55.564Z,2.27
2018-06-19T09:06:24.240Z,2.17
2018-06-19T09:08:52.712Z,2.30
2018-06-19T09:11:21.304Z,2.53
2018-06-19T09:13:49.744Z,3.17
2018-06-19T09:16:18.373Z,2.30
2018-06-19T09:18:46.855Z,2.00
2018-06-19T09:21:15.601Z,2.17
2018-06-19T09:23:44.059Z,2.30
2018-06-19T09:26:12.699Z,3.00
2018-06-19T09:28:41.241Z,2.37
2018-06-19T09:31:09.469Z,2.83
2018-06-19T09:33:37.973Z,2.90
2018-06-19T09:36:06.473Z,2.40
2018-06-19T09:38:34.903Z,2.13
2018-06-19T09:41:03.354Z,2.20
2018-06-19T09:43:31.928Z,2.20
2018-06-19T09:46:00.473Z,2.10
2018-06-19T09:48:28.917Z,2.80
2018-06-19T09:50:57.365Z,2.33
2018-06-19T09:53:25.845Z,1.80
2018-06-19T09:55:54.505Z,2.33
2018-06-19T09:58:23.011Z,2.07
2018-06-19T10:00:51.590Z,2.57
2018-06-19T10:03:20.225Z,2.00
2018-06-19T10:05:48.690Z,1.83
2018-06-19T10:08:17.109Z,1.73
2018-06-19T10:10:45.535Z,2.00
2018-06-19T10:13:14.148Z,1.93
2018-06-19T10:15:42.792Z,2.17
2018-06-19T10:18:11.720Z,2.30
2018-06-19T10:20:40.188Z,2.37
2018-06-19T10:23:08.716Z,2.17
2018-06-19T10:25:37.300Z,1.90
2018-06-19T10:28:05.927Z,2.40
2018-06-19T10:30:34.418Z,2.40
2018-06-19T10:33:02.864Z,2.10
2018-06-19T10:35:31.385Z,2.20
2018-06-19T10:37:59.780Z,2.23
2018-06-19T10:40:28.352Z,2.17
2018-06-19T10:42:56.800Z,1.90
2018-06-19T10:45:25.524Z,1.87
2018-06-19T10:47:54.089Z,2.20
2018-06-19T10:50:22.568Z,2.30
2018-06-19T10:52:51.161Z,2.13
2018-06-19T10:55:19.596Z,2.57
2018-06-19T10:57:48.048Z,2.00
2018-06-19T11:00:16.562Z,1.90
2018-06-19T11:02:45.189Z,1.77
2018-06-19T11:05:13.873Z,2.13
2018-06-19T11:07:42.361Z,1.80
2018-06-19T11:10:10.789Z,2.00
2018-06-19T11:12:39.269Z,1.97
2018-06-19T11:15:07.685Z,1.90
2018-06-19T11:17:36.229Z,1.97
2018-06-19T11:20:04.782Z,2.10
2018-06-19T11:22:33.481Z,1.70
2018-06-19T11:25:01.922Z,1.90
2018-06-19T11:27:30.532Z,1.60
2018-06-19T11:29:58.996Z,1.60
2018-06-19T11:32:27.567Z,2.20
2018-06-19T11:34:55.998Z,2.07
2018-06-19T11:37:24.517Z,1.77
2018-06-19T11:39:52.990Z,2.03
2018-06-19T11:42:21.472Z,2.43
2018-06-19T11:44:49.996Z,2.03
2018-06-19T11:47:18.629Z,2.20
2018-06-19T11:49:47.249Z,2.03
2018-06-19T11:52:15.727Z,2.77
2018-06-19T11:54:44.368Z,1.80
2018-06-19T11:57:12.890Z,2.00
2018-06-19T11:59:41.309Z,1.90
2018-06-19T12:02:09.803Z,2.10
2018-06-19T12:04:38.424Z,1.70
2018-06-19T12:07:07.137Z,1.90
2018-06-19T12:09:35.730Z,1.70
2018-06-19T12:12:04.356Z,1.80
2018-06-19T12:14:32.801Z,2.23
2018-06-19T12:17:01.242Z,2.20
2018-06-19T12:19:29.728Z,2.03
2018-06-19T12:21:58.192Z,1.63
2018-06-19T12:24:26.628Z,2.03
2018-06-19T12:26:55.132Z,1.90
2018-06-19T12:29:23.653Z,1.83
2018-06-19T12:31:52.114Z,1.70
2018-06-19T12:34:20.672Z,1.90
2018-06-19T12:36:49.348Z,1.70
2018-06-19T12:39:17.936Z,1.70
2018-06-19T12:41:47.701Z,1.77
2018-06-19T12:44:16.261Z,1.63
2018-06-19T12:46:44.677Z,2.03
2018-06-19T12:49:13.324Z,1.90
2018-06-19T12:51:54.515Z,1.57
2018-06-19T12:55:31.271Z,1.80
2018-06-19T12:57:59.728Z,1.80
2018-06-19T13:00:28.214Z,1.60
2018-06-19T13:03:08.092Z,1.40
2018-06-19T13:05:47.869Z,2.10
2018-06-19T13:08:16.485Z,1.43
2018-06-19T13:10:44.933Z,1.60
2018-06-19T13:13:25.973Z,2.03
2018-06-19T13:15:55.230Z,2.27
2018-06-19T13:18:36.164Z,1.70
2018-06-19T13:21:04.685Z,2.60
2018-06-19T13:23:33.429Z,1.60
2018-06-19T13:26:02.183Z,1.80
2018-06-19T13:29:44.197Z,1.90
2018-06-19T13:32:12.672Z,2.30
2018-06-19T13:34:41.205Z,1.33
2018-06-19T13:37:09.687Z,1.90
2018-06-19T13:39:39.003Z,1.97
2018-06-19T13:42:22.568Z,1.97
2018-06-19T13:44:58.065Z,2.07
2018-06-19T13:47:26.521Z,1.47
2018-06-19T13:49:55.041Z,1.60
2018-06-19T13:52:23.556Z,1.67
2018-06-19T13:54:51.992Z,1.53
2018-06-19T13:57:39.888Z,1.50
2018-06-19T14:00:13.335Z,2.33
2018-06-19T14:02:42.068Z,2.17
2018-06-19T14:05:11.208Z,1.70
2018-06-19T14:07:53.244Z,1.83
2018-06-19T14:10:32.925Z,2.00
2018-06-19T14:13:02.475Z,1.87
2018-06-19T14:15:38.005Z,1.90
2018-06-19T14:18:06.912Z,2.07
2018-06-19T14:20:35.891Z,1.50
2018-06-19T14:23:04.400Z,1.77
2018-06-19T14:25:33.169Z,1.80
2018-06-19T14:28:01.590Z,2.20
2018-06-19T14:30:30.042Z,1.80
2018-06-19T14:32:58.499Z,2.10
2018-06-19T14:35:26.940Z,2.07
2018-06-19T14:37:55.488Z,1.93
2018-06-19T14:40:24.039Z,2.17
2018-06-19T14:42:52.625Z,2.17
2018-06-19T14:45:21.221Z,2.00
2018-06-19T14:47:49.761Z,1.70
2018-06-19T14:50:18.320Z,1.93
2018-06-19T14:52:46.926Z,1.60
2018-06-19T14:55:15.485Z,2.10
2018-06-19T14:57:44.126Z,2.20
2018-06-19T15:00:12.684Z,2.00
2018-06-19T15:02:41.141Z,2.47
2018-06-19T15:05:09.751Z,1.90
2018-06-19T15:07:42.480Z,2.00
2018-06-19T15:10:10.956Z,2.13
2018-06-19T15:12:39.425Z,1.60
2018-06-19T15:15:07.852Z,1.90
2018-06-19T15:17:36.609Z,2.00
2018-06-19T15:20:05.693Z,2.00
2018-06-19T15:22:34.152Z,2.30
2018-06-19T15:25:02.582Z,2.23
2018-06-19T15:27:31.119Z,2.30
2018-06-19T15:29:59.267Z,1.70
2018-06-19T15:32:27.715Z,1.80
2018-06-19T15:34:56.553Z,2.07
2018-06-19T15:37:25.142Z,2.00
2018-06-19T15:39:53.699Z,1.90
2018-06-19T15:42:22.217Z,2.00
2018-06-19T15:44:50.729Z,2.10
2018-06-19T15:47:19.395Z,1.70
2018-06-19T15:49:47.881Z,1.70
2018-06-19T15:52:16.347Z,2.20
2018-06-19T15:54:45.050Z,2.00
2018-06-19T15:57:13.500Z,1.80
2018-06-19T15:59:42.287Z,1.87
2018-06-19T16:02:10.749Z,1.80
2018-06-19T16:04:39.400Z,1.73
2018-06-19T16:07:07.860Z,1.87
2018-06-19T16:09:36.397Z,1.90
2018-06-19T16:12:05.012Z,1.60
2018-06-19T16:14:33.567Z,2.30
2018-06-19T16:17:02.185Z,1.90
2018-06-19T16:19:30.759Z,1.80
2018-06-19T16:21:59.262Z,1.90
2018-06-19T16:24:28.081Z,2.20
2018-06-19T16:26:56.764Z,2.50
2018-06-19T16:29:25.192Z,2.20
2018-06-19T16:31:53.649Z,2.30
2018-06-19T16:34:22.100Z,2.20
2018-06-19T16:36:50.800Z,2.20
2018-06-19T16:39:19.245Z,1.63
2018-06-19T16:41:47.684Z,2.30
2018-06-19T16:44:16.136Z,2.00
2018-06-19T16:46:44.897Z,2.10
2018-06-19T16:49:13.452Z,1.70
2018-06-19T16:51:42.082Z,2.33
2018-06-19T16:54:10.644Z,1.80
2018-06-19T16:56:40.037Z,2.30
2018-06-19T16:59:08.778Z,1.93
2018-06-19T17:01:37.474Z,2.20
2018-06-19T17:04:05.928Z,2.37
2018-06-19T17:06:34.890Z,1.97
2018-06-19T17:09:03.516Z,2.17
2018-06-19T17:11:32.235Z,2.27
2018-06-19T17:14:00.705Z,1.93
2018-06-19T17:16:29.275Z,2.03
2018-06-19T17:18:57.891Z,2.30
2018-06-19T17:21:26.584Z,2.13
2018-06-19T17:23:55.031Z,2.20
2018-06-19T17:26:23.525Z,2.20
2018-06-19T17:28:51.971Z,2.00
2018-06-19T17:31:20.424Z,2.00
2018-06-19T17:33:48.992Z,2.07
2018-06-19T17:36:17.480Z,1.70
2018-06-19T17:38:45.937Z,2.03
2018-06-19T17:41:14.421Z,2.00
2018-06-19T17:43:42.955Z,2.43
2018-06-19T17:46:11.635Z,2.30
2018-06-19T17:48:40.092Z,2.20
2018-06-19T17:51:08.260Z,2.30
2018-06-19T17:53:36.831Z,2.20
2018-06-19T17:56:05.631Z,2.40
2018-06-19T17:58:34.060Z,2.57
2018-06-19T18:01:02.733Z,2.70
2018-06-19T18:03:31.192Z,2.30
2018-06-19T18:05:59.995Z,2.20
2018-06-19T18:08:28.620Z,2.20
2018-06-19T18:10:57.398Z,2.63
2018-06-19T18:13:25.824Z,2.50
2018-06-19T18:15:54.323Z,2.23
2018-06-19T18:18:22.877Z,2.40
2018-06-19T18:20:51.453Z,2.30
2018-06-19T18:23:19.933Z,2.77
2018-06-19T18:25:48.620Z,2.80
2018-06-19T18:28:17.160Z,3.00
2018-06-19T18:30:45.925Z,2.60
2018-06-19T18:33:14.372Z,2.63
2018-06-19T18:35:42.913Z,2.57
2018-06-19T18:38:11.488Z,3.33
2018-06-19T18:40:40.331Z,3.67
2018-06-19T18:43:08.853Z,2.60
2018-06-19T18:45:37.700Z,3.10
2018-06-19T18:48:06.317Z,3.17
2018-06-19T18:50:34.893Z,2.87
2018-06-19T18:53:03.403Z,2.77
2018-06-19T18:55:32.061Z,3.20
2018-06-19T18:58:00.596Z,3.23
2018-06-19T19:00:29.253Z,2.93
2018-06-19T19:02:57.915Z,3.50
2018-06-19T19:05:26.351Z,3.40
2018-06-19T19:07:54.914Z,2.67
2018-06-19T19:10:28.855Z,3.10
2018-06-19T19:12:57.348Z,3.10
2018-06-19T19:15:31.163Z,3.27
2018-06-19T19:18:05.029Z,4.00
2018-06-19T19:20:33.804Z,3.40
2018-06-19T19:23:02.323Z,4.10
2018-06-19T19:25:30.819Z,3.53
2018-06-19T19:28:04.695Z,4.40
2018-06-19T19:30:33.270Z,4.40
2018-06-19T19:33:01.778Z,3.50
2018-06-19T19:35:30.512Z,3.50
2018-06-19T19:38:04.348Z,3.73
2018-06-19T19:40:32.917Z,4.20
2018-06-19T19:43:01.472Z,3.93
2018-06-19T19:45:30.197Z,3.90
2018-06-19T19:48:04.031Z,3.80
2018-06-19T19:50:32.847Z,4.77
2018-06-19T19:53:01.576Z,4.70
2018-06-19T19:55:30.254Z,3.93
2018-06-19T19:58:03.903Z,4.20
2018-06-19T20:00:32.639Z,4.60
2018-06-19T20:03:01.396Z,4.40
2018-06-19T20:05:30.439Z,4.20
2018-06-19T20:07:58.947Z,4.87
2018-06-19T20:10:27.530Z,4.27
2018-06-19T20:12:56.016Z,4.53
2018-06-19T20:15:24.518Z,4.33
2018-06-19T20:17:53.144Z,4.17
2018-06-19T20:20:21.703Z,4.00
2018-06-19T20:22:50.202Z,4.50
2018-06-19T20:25:18.770Z,4.47
2018-06-19T20:27:47.626Z,4.10
2018-06-19T20:30:16.305Z,4.07
2018-06-19T20:32:44.861Z,4.37
2018-06-19T20:35:13.394Z,3.80
2018-06-19T20:37:42.145Z,5.00
2018-06-19T20:40:10.751Z,4.87
2018-06-19T20:42:39.541Z,4.60
2018-06-19T20:45:08.601Z,4.43
2018-06-19T20:47:37.449Z,5.27
2018-06-19T20:50:05.966Z,5.17
2018-06-19T20:52:34.529Z,4.60
2018-06-19T20:55:02.970Z,4.00
2018-06-19T20:57:31.802Z,4.77
2018-06-19T21:00:00.292Z,5.00
2018-06-19T21:02:29.003Z,4.10
2018-06-19T21:04:57.700Z,4.60
2018-06-19T21:07:26.173Z,4.37
2018-06-19T21:09:54.464Z,4.20
2018-06-19T21:12:22.976Z,4.53
2018-06-19T21:14:51.475Z,3.93
2018-06-19T21:17:19.954Z,4.60
2018-06-19T21:19:48.863Z,4.17
2018-06-19T21:22:24.427Z,4.50
2018-06-19T21:24:52.968Z,3.77
2018-06-19T21:27:21.813Z,4.00
2018-06-19T21:29:50.438Z,4.03
2018-06-19T21:32:19.028Z,3.47
2018-06-19T21:34:47.778Z,4.80
2018-06-19T21:37:16.202Z,4.30
2018-06-19T21:39:44.721Z,4.30
2018-06-19T21:42:13.202Z,3.80
2018-06-19T21:44:41.665Z,4.20
2018-06-19T21:47:10.136Z,3.70
2018-06-19T21:49:38.741Z,4.13
2018-06-19T21:52:07.641Z,3.50
2018-06-19T21:54:36.182Z,4.30
2018-06-19T21:57:04.721Z,3.80
2018-06-19T21:59:33.184Z,3.77
2018-06-19T22:02:01.839Z,4.07
2018-06-19T22:04:30.238Z,3.93
2018-06-19T22:06:59.118Z,3.97
2018-06-19T22:09:27.837Z,3.30
2018-06-19T22:11:56.388Z,4.17
2018-06-19T22:14:24.876Z,3.47
2018-06-19T22:16:53.436Z,3.90
2018-06-19T22:19:22.013Z,4.00
2018-06-19T22:21:50.475Z,3.97
2018-06-19T22:24:18.952Z,4.20
2018-06-19T22:26:47.460Z,4.13
2018-06-19T22:29:15.848Z,3.87
2018-06-19T22:31:44.417Z,3.70
2018-06-19T22:34:13.110Z,4.20
2018-06-19T22:36:41.837Z,3.90
2018-06-19T22:39:10.339Z,3.93
2018-06-19T22:41:38.796Z,3.47
2018-06-19T22:44:07.348Z,4.23
2018-06-19T22:46:35.885Z,3.90
2018-06-19T22:49:04.344Z,3.80
2018-06-19T22:51:32.768Z,4.10
2018-06-19T22:54:01.299Z,4.23
2018-06-19T22:56:29.861Z,4.27
2018-06-19T22:58:58.494Z,4.30
2018-06-19T23:01:27.064Z,4.40
2018-06-19T23:03:55.523Z,4.50
2018-06-19T23:06:23.978Z,4.37
2018-06-19T23:08:52.478Z,3.73
2018-06-19T23:11:20.940Z,3.90
2018-06-19T23:13:49.468Z,4.03
2018-06-19T23:16:18.145Z,4.17
2018-06-19T23:18:46.589Z,3.90
2018-06-19T23:21:15.297Z,4.00
2018-06-19T23:23:43.760Z,4.53
2018-06-19T23:26:12.281Z,4.00
2018-06-19T23:28:40.788Z,4.30
2018-06-19T23:31:09.265Z,4.00
2018-06-19T23:33:37.822Z,3.70
2018-06-19T23:36:06.268Z,3.33
2018-06-19T23:38:34.901Z,4.00
2018-06-19T23:41:03.392Z,3.70
2018-06-19T23:43:32.033Z,3.77
2018-06-19T23:46:00.464Z,4.47
2018-06-19T23:48:29.055Z,3.83
2018-06-19T23:50:57.579Z,4.00
2018-06-19T23:53:26.204Z,4.00
2018-06-19T23:55:54.748Z,3.83
2018-06-19T23:58:23.219Z,3.80
